sensor_id;sensor_type;location;lat;lon;timestamp;pressure;altitude;pressure_sealevel;temperature;humidity
58622;BME280;44389;51.578;5.456;2023-12-20T00:00:15;101485.16;;;4.60;100.00
58622;BME280;44389;51.578;5.456;2023-12-20T00:02:40;101485.63;;;4.54;100.00
58622;BME280;44389;51.578;5.456;2023-12-20T00:05:06;101498.09;;;4.50;100.00
58622;BME280;44389;51.578;5.456;2023-12-20T00:07:31;101495.25;;;4.45;100.00
58622;BME280;44389;51.578;5.456;2023-12-20T00:09:56;101503.50;;;4.41;100.00
58622;BME280;44389;51.578;5.456;2023-12-20T00:12:22;101503.09;;;4.35;100.00
58622;BME280;44389;51.578;5.456;2023-12-20T00:14:47;101496.22;;;4.34;100.00
58622;BME280;44389;51.578;5.456;2023-12-20T00:17:13;101493.38;;;4.29;100.00
58622;BME280;44389;51.578;5.456;2023-12-20T00:19:38;101505.22;;;4.28;100.00
58622;BME280;44389;51.578;5.456;2023-12-20T00:22:03;101507.00;;;4.29;100.00
58622;BME280;44389;51.578;5.456;2023-12-20T00:24:29;101496.03;;;4.31;100.00
58622;BME280;44389;51.578;5.456;2023-12-20T00:26:54;101505.34;;;4.30;100.00
58622;BME280;44389;51.578;5.456;2023-12-20T00:29:19;101501.72;;;4.26;100.00
58622;BME280;44389;51.578;5.456;2023-12-20T00:31:44;101497.19;;;4.22;100.00
58622;BME280;44389;51.578;5.456;2023-12-20T00:34:10;101488.53;;;4.20;100.00
58622;BME280;44389;51.578;5.456;2023-12-20T00:36:35;101484.63;;;4.12;100.00
58622;BME280;44389;51.578;5.456;2023-12-20T00:39:00;101491.28;;;4.10;100.00
58622;BME280;44389;51.578;5.456;2023-12-20T00:41:26;101477.34;;;4.05;100.00
58622;BME280;44389;51.578;5.456;2023-12-20T00:43:51;101483.97;;;4.03;100.00
58622;BME280;44389;51.578;5.456;2023-12-20T00:46:16;101475.16;;;3.98;100.00
58622;BME280;44389;51.578;5.456;2023-12-20T00:48:41;101475.81;;;3.95;100.00
58622;BME280;44389;51.578;5.456;2023-12-20T00:51:07;101478.28;;;3.93;100.00
58622;BME280;44389;51.578;5.456;2023-12-20T00:53:32;101479.63;;;3.88;100.00
58622;BME280;44389;51.578;5.456;2023-12-20T00:55:58;101470.13;;;3.86;100.00
58622;BME280;44389;51.578;5.456;2023-12-20T00:58:23;101470.78;;;3.83;100.00
58622;BME280;44389;51.578;5.456;2023-12-20T01:00:49;101477.47;;;3.81;100.00
58622;BME280;44389;51.578;5.456;2023-12-20T01:03:14;101487.09;;;3.85;100.00
58622;BME280;44389;51.578;5.456;2023-12-20T01:05:40;101483.66;;;3.85;100.00
58622;BME280;44389;51.578;5.456;2023-12-20T01:08:06;101473.25;;;3.82;100.00
58622;BME280;44389;51.578;5.456;2023-12-20T01:10:31;101476.47;;;3.79;100.00
58622;BME280;44389;51.578;5.456;2023-12-20T01:12:57;101480.56;;;3.77;100.00
58622;BME280;44389;51.578;5.456;2023-12-20T01:15:22;101488.03;;;3.74;100.00
58622;BME280;44389;51.578;5.456;2023-12-20T01:17:48;101488.34;;;3.78;100.00
58622;BME280;44389;51.578;5.456;2023-12-20T01:20:14;101490.00;;;3.78;100.00
58622;BME280;44389;51.578;5.456;2023-12-20T01:22:40;101484.81;;;3.76;100.00
58622;BME280;44389;51.578;5.456;2023-12-20T01:25:05;101491.69;;;3.77;100.00
58622;BME280;44389;51.578;5.456;2023-12-20T01:27:30;101492.56;;;3.78;100.00
58622;BME280;44389;51.578;5.456;2023-12-20T01:29:56;101477.06;;;3.75;100.00
58622;BME280;44389;51.578;5.456;2023-12-20T01:32:22;101485.69;;;3.77;100.00
58622;BME280;44389;51.578;5.456;2023-12-20T01:34:47;101481.56;;;3.79;100.00
58622;BME280;44389;51.578;5.456;2023-12-20T01:37:13;101489.41;;;3.82;100.00
58622;BME280;44389;51.578;5.456;2023-12-20T01:39:39;101492.56;;;3.78;100.00
58622;BME280;44389;51.578;5.456;2023-12-20T01:42:04;101493.47;;;3.78;100.00
58622;BME280;44389;51.578;5.456;2023-12-20T01:44:30;101490.00;;;3.78;100.00
58622;BME280;44389;51.578;5.456;2023-12-20T01:46:55;101490.69;;;3.75;100.00
58622;BME280;44389;51.578;5.456;2023-12-20T01:49:21;101485.47;;;3.74;100.00
58622;BME280;44389;51.578;5.456;2023-12-20T01:51:47;101490.59;;;3.74;100.00
58622;BME280;44389;51.578;5.456;2023-12-20T01:54:12;101477.06;;;3.75;100.00
58622;BME280;44389;51.578;5.456;2023-12-20T01:56:39;101481.25;;;3.74;100.00
58622;BME280;44389;51.578;5.456;2023-12-20T01:59:06;101487.34;;;3.76;100.00
58622;BME280;44389;51.578;5.456;2023-12-20T02:01:32;101485.91;;;3.80;100.00
58622;BME280;44389;51.578;5.456;2023-12-20T02:03:58;101485.28;;;3.71;100.00
58622;BME280;44389;51.578;5.456;2023-12-20T02:06:25;101478.41;;;3.70;100.00
58622;BME280;44389;51.578;5.456;2023-12-20T02:08:54;101485.28;;;3.71;100.00
58622;BME280;44389;51.578;5.456;2023-12-20T02:11:20;101496.34;;;3.71;100.00
58622;BME280;44389;51.578;5.456;2023-12-20T02:13:46;101489.38;;;3.69;100.00
58622;BME280;44389;51.578;5.456;2023-12-20T02:16:11;101493.47;;;3.67;100.00
58622;BME280;44389;51.578;5.456;2023-12-20T02:18:36;101482.41;;;3.66;100.00
58622;BME280;44389;51.578;5.456;2023-12-20T02:21:04;101489.75;;;3.61;100.00
58622;BME280;44389;51.578;5.456;2023-12-20T02:23:30;101484.63;;;3.61;100.00
58622;BME280;44389;51.578;5.456;2023-12-20T02:25:55;101479.34;;;3.58;100.00
58622;BME280;44389;51.578;5.456;2023-12-20T02:28:21;101482.31;;;3.65;100.00
58622;BME280;44389;51.578;5.456;2023-12-20T02:30:47;101487.59;;;3.68;100.00
58622;BME280;44389;51.578;5.456;2023-12-20T02:33:15;101483.50;;;3.70;100.00
58622;BME280;44389;51.578;5.456;2023-12-20T02:35:40;101489.03;;;3.76;100.00
58622;BME280;44389;51.578;5.456;2023-12-20T02:38:06;101489.03;;;3.76;100.00
58622;BME280;44389;51.578;5.456;2023-12-20T02:40:32;101484.81;;;3.76;100.00
58622;BME280;44389;51.578;5.456;2023-12-20T02:42:57;101485.91;;;3.80;100.00
58622;BME280;44389;51.578;5.456;2023-12-20T02:45:22;101479.22;;;3.82;100.00
58622;BME280;44389;51.578;5.456;2023-12-20T02:47:47;101467.47;;;3.84;100.00
58622;BME280;44389;51.578;5.456;2023-12-20T02:50:13;101473.44;;;3.85;100.00
58622;BME280;44389;51.578;5.456;2023-12-20T02:52:38;101476.00;;;3.85;100.00
58622;BME280;44389;51.578;5.456;2023-12-20T02:55:04;101484.75;;;3.88;100.00
58622;BME280;44389;51.578;5.456;2023-12-20T02:57:29;101480.63;;;3.90;100.00
58622;BME280;44389;51.578;5.456;2023-12-20T02:59:54;101474.53;;;3.88;100.00
58622;BME280;44389;51.578;5.456;2023-12-20T03:02:19;101477.09;;;3.88;100.00
58622;BME280;44389;51.578;5.456;2023-12-20T03:04:45;101478.97;;;3.91;100.00
58622;BME280;44389;51.578;5.456;2023-12-20T03:07:10;101480.16;;;3.96;100.00
58622;BME280;44389;51.578;5.456;2023-12-20T03:09:37;101485.56;;;4.01;100.00
58622;BME280;44389;51.578;5.456;2023-12-20T03:12:02;101478.00;;;4.02;100.00
58622;BME280;44389;51.578;5.456;2023-12-20T03:14:27;101474.00;;;4.06;100.00
58622;BME280;44389;51.578;5.456;2023-12-20T03:16:53;101464.00;;;4.09;100.00
58622;BME280;44389;51.578;5.456;2023-12-20T03:19:18;101450.47;;;4.10;100.00
58622;BME280;44389;51.578;5.456;2023-12-20T03:21:46;101459.78;;;4.09;100.00
58622;BME280;44389;51.578;5.456;2023-12-20T03:24:11;101464.91;;;4.09;100.00
58622;BME280;44389;51.578;5.456;2023-12-20T03:26:37;101449.59;;;4.09;100.00
58622;BME280;44389;51.578;5.456;2023-12-20T03:29:02;101449.19;;;4.03;100.00
58622;BME280;44389;51.578;5.456;2023-12-20T03:31:27;101440.34;;;3.98;100.00
58622;BME280;44389;51.578;5.456;2023-12-20T03:33:52;101446.13;;;3.95;100.00
58622;BME280;44389;51.578;5.456;2023-12-20T03:36:19;101445.34;;;3.97;100.00
58622;BME280;44389;51.578;5.456;2023-12-20T03:38:44;101454.75;;;3.98;100.00
58622;BME280;44389;51.578;5.456;2023-12-20T03:41:09;101460.53;;;3.95;100.00
58622;BME280;44389;51.578;5.456;2023-12-20T03:43:35;101455.56;;;3.97;100.00
58622;BME280;44389;51.578;5.456;2023-12-20T03:46:00;101453.88;;;3.97;100.00
58622;BME280;44389;51.578;5.456;2023-12-20T03:48:25;101443.75;;;3.99;100.00
58622;BME280;44389;51.578;5.456;2023-12-20T03:50:51;101450.63;;;4.00;100.00
58622;BME280;44389;51.578;5.456;2023-12-20T03:53:16;101450.63;;;4.00;100.00
58622;BME280;44389;51.578;5.456;2023-12-20T03:55:41;101454.28;;;4.03;100.00
58622;BME280;44389;51.578;5.456;2023-12-20T03:58:06;101453.59;;;4.06;100.00
58622;BME280;44389;51.578;5.456;2023-12-20T04:00:32;101443.59;;;4.09;100.00
58622;BME280;44389;51.578;5.456;2023-12-20T04:02:57;101449.69;;;4.11;100.00
58622;BME280;44389;51.578;5.456;2023-12-20T04:05:22;101449.88;;;4.14;100.00
58622;BME280;44389;51.578;5.456;2023-12-20T04:07:47;101448.31;;;4.16;100.00
58622;BME280;44389;51.578;5.456;2023-12-20T04:10:13;101444.31;;;4.20;100.00
58622;BME280;44389;51.578;5.456;2023-12-20T04:12:38;101454.69;;;4.23;100.00
58622;BME280;44389;51.578;5.456;2023-12-20T04:15:04;101458.34;;;4.26;100.00
58622;BME280;44389;51.578;5.456;2023-12-20T04:17:34;101457.75;;;4.31;100.00
58622;BME280;44389;51.578;5.456;2023-12-20T04:19:59;101454.50;;;4.33;100.00
58622;BME280;44389;51.578;5.456;2023-12-20T04:22:24;101455.59;;;4.37;100.00
58622;BME280;44389;51.578;5.456;2023-12-20T04:24:50;101454.91;;;4.39;100.00
58622;BME280;44389;51.578;5.456;2023-12-20T04:27:15;101452.63;;;4.44;100.00
58622;BME280;44389;51.578;5.456;2023-12-20T04:29:40;101456.19;;;4.46;100.00
58622;BME280;44389;51.578;5.456;2023-12-20T04:32:06;101455.50;;;4.49;100.00
58622;BME280;44389;51.578;5.456;2023-12-20T04:34:31;101454.72;;;4.50;100.00
58622;BME280;44389;51.578;5.456;2023-12-20T04:36:56;101450.56;;;4.52;100.00
58622;BME280;44389;51.578;5.456;2023-12-20T04:39:21;101454.91;;;4.53;100.00
58622;BME280;44389;51.578;5.456;2023-12-20T04:41:47;101449.00;;;4.54;100.00
58622;BME280;44389;51.578;5.456;2023-12-20T04:44:15;101449.09;;;4.55;100.00
58622;BME280;44389;51.578;5.456;2023-12-20T04:46:41;101446.75;;;4.58;100.00
58622;BME280;44389;51.578;5.456;2023-12-20T04:49:06;101447.63;;;4.59;100.00
58622;BME280;44389;51.578;5.456;2023-12-20T04:51:34;101439.19;;;4.60;100.00
58622;BME280;44389;51.578;5.456;2023-12-20T04:54:01;101451.88;;;4.58;100.00
58622;BME280;44389;51.578;5.456;2023-12-20T04:56:26;101455.38;;;4.60;100.00
58622;BME280;44389;51.578;5.456;2023-12-20T04:58:51;101453.81;;;4.63;100.00
58622;BME280;44389;51.578;5.456;2023-12-20T05:01:17;101454.78;;;4.65;100.00
58622;BME280;44389;51.578;5.456;2023-12-20T05:03:42;101437.91;;;4.67;100.00
58622;BME280;44389;51.578;5.456;2023-12-20T05:06:08;101449.91;;;4.68;100.00
58622;BME280;44389;51.578;5.456;2023-12-20T05:08:33;101455.19;;;4.71;100.00
58622;BME280;44389;51.578;5.456;2023-12-20T05:10:58;101440.84;;;4.73;100.00
58622;BME280;44389;51.578;5.456;2023-12-20T05:13:23;101440.84;;;4.73;100.00
58622;BME280;44389;51.578;5.456;2023-12-20T05:15:49;101432.41;;;4.74;100.00
58622;BME280;44389;51.578;5.456;2023-12-20T05:18:14;101426.41;;;4.73;100.00
58622;BME280;44389;51.578;5.456;2023-12-20T05:20:40;101431.72;;;4.76;100.00
58622;BME280;44389;51.578;5.456;2023-12-20T05:23:05;101436.91;;;4.78;100.00
58622;BME280;44389;51.578;5.456;2023-12-20T05:25:31;101436.13;;;4.79;100.00
58622;BME280;44389;51.578;5.456;2023-12-20T05:27:56;101441.34;;;4.81;100.00
58622;BME280;44389;51.578;5.456;2023-12-20T05:30:21;101434.44;;;4.80;100.00
58622;BME280;44389;51.578;5.456;2023-12-20T05:32:47;101432.78;;;4.80;100.00
58622;BME280;44389;51.578;5.456;2023-12-20T05:35:12;101432.78;;;4.80;100.00
58622;BME280;44389;51.578;5.456;2023-12-20T05:37:38;101425.91;;;4.79;100.00
58622;BME280;44389;51.578;5.456;2023-12-20T05:40:03;101428.34;;;4.77;100.00
58622;BME280;44389;51.578;5.456;2023-12-20T05:42:29;101421.38;;;4.75;100.00
58622;BME280;44389;51.578;5.456;2023-12-20T05:44:54;101424.75;;;4.74;100.00
58622;BME280;44389;51.578;5.456;2023-12-20T05:47:20;101432.19;;;4.71;100.00
58622;BME280;44389;51.578;5.456;2023-12-20T05:49:45;101436.22;;;4.67;100.00
58622;BME280;44389;51.578;5.456;2023-12-20T05:52:10;101441.06;;;4.63;100.00
58622;BME280;44389;51.578;5.456;2023-12-20T05:54:35;101452.66;;;4.57;100.00
58622;BME280;44389;51.578;5.456;2023-12-20T05:57:01;101447.94;;;4.50;100.00
58622;BME280;44389;51.578;5.456;2023-12-20T05:59:26;101454.22;;;4.42;100.00
58622;BME280;44389;51.578;5.456;2023-12-20T06:01:51;101465.81;;;4.37;100.00
58622;BME280;44389;51.578;5.456;2023-12-20T06:04:16;101466.50;;;4.34;100.00
58622;BME280;44389;51.578;5.456;2023-12-20T06:06:42;101478.25;;;4.32;100.00
58622;BME280;44389;51.578;5.456;2023-12-20T06:09:08;101469.72;;;4.32;100.00
58622;BME280;44389;51.578;5.456;2023-12-20T06:11:33;101462.94;;;4.32;100.00
58622;BME280;44389;51.578;5.456;2023-12-20T06:13:58;101463.94;;;4.34;100.00
58622;BME280;44389;51.578;5.456;2023-12-20T06:16:24;101464.03;;;4.36;100.00
58622;BME280;44389;51.578;5.456;2023-12-20T06:18:49;101470.00;;;4.36;100.00
58622;BME280;44389;51.578;5.456;2023-12-20T06:21:14;101457.25;;;4.36;100.00
58622;BME280;44389;51.578;5.456;2023-12-20T06:23:40;101461.47;;;4.36;100.00
58622;BME280;44389;51.578;5.456;2023-12-20T06:26:05;101452.94;;;4.35;100.00
58622;BME280;44389;51.578;5.456;2023-12-20T06:28:31;101458.63;;;4.31;100.00
58622;BME280;44389;51.578;5.456;2023-12-20T06:30:56;101454.78;;;4.24;100.00
58622;BME280;44389;51.578;5.456;2023-12-20T06:33:22;101461.25;;;4.19;100.00
58622;BME280;44389;51.578;5.456;2023-12-20T06:35:48;101456.75;;;4.15;100.00
58622;BME280;44389;51.578;5.456;2023-12-20T06:38:13;101453.31;;;4.15;100.00
58622;BME280;44389;51.578;5.456;2023-12-20T06:40:39;101460.06;;;4.14;100.00
58622;BME280;44389;51.578;5.456;2023-12-20T06:43:04;101455.97;;;4.16;100.00
58622;BME280;44389;51.578;5.456;2023-12-20T06:45:31;101461.06;;;4.16;100.00
58622;BME280;44389;51.578;5.456;2023-12-20T06:47:57;101463.72;;;4.18;100.00
58622;BME280;44389;51.578;5.456;2023-12-20T06:50:22;101461.25;;;4.19;100.00
58622;BME280;44389;51.578;5.456;2023-12-20T06:52:47;101461.25;;;4.19;100.00
58622;BME280;44389;51.578;5.456;2023-12-20T06:55:13;101459.59;;;4.20;100.00
58622;BME280;44389;51.578;5.456;2023-12-20T06:57:38;101455.38;;;4.20;100.00
58622;BME280;44389;51.578;5.456;2023-12-20T07:00:04;101459.59;;;4.20;100.00
58622;BME280;44389;51.578;5.456;2023-12-20T07:02:29;101455.38;;;4.20;100.00
58622;BME280;44389;51.578;5.456;2023-12-20T07:04:55;101457.94;;;4.20;100.00
58622;BME280;44389;51.578;5.456;2023-12-20T07:07:21;101452.81;;;4.20;100.00
58622;BME280;44389;51.578;5.456;2023-12-20T07:09:46;101447.72;;;4.20;100.00
58622;BME280;44389;51.578;5.456;2023-12-20T07:12:11;101454.50;;;4.20;100.00
58622;BME280;44389;51.578;5.456;2023-12-20T07:14:36;101452.81;;;4.20;100.00
58622;BME280;44389;51.578;5.456;2023-12-20T07:17:02;101452.81;;;4.20;100.00
58622;BME280;44389;51.578;5.456;2023-12-20T07:19:28;101445.19;;;4.20;100.00
58622;BME280;44389;51.578;5.456;2023-12-20T07:21:53;101441.75;;;4.20;100.00
58622;BME280;44389;51.578;5.456;2023-12-20T07:24:19;101445.09;;;4.19;100.00
58622;BME280;44389;51.578;5.456;2023-12-20T07:26:44;101463.81;;;4.19;100.00
58622;BME280;44389;51.578;5.456;2023-12-20T07:29:09;101456.25;;;4.21;100.00
58622;BME280;44389;51.578;5.456;2023-12-20T07:31:34;101458.81;;;4.21;100.00
58622;BME280;44389;51.578;5.456;2023-12-20T07:34:00;101458.03;;;4.22;100.00
58622;BME280;44389;51.578;5.456;2023-12-20T07:36:25;101454.59;;;4.21;100.00
58622;BME280;44389;51.578;5.456;2023-12-20T07:38:50;101452.91;;;4.22;100.00
58622;BME280;44389;51.578;5.456;2023-12-20T07:41:16;101449.59;;;4.23;100.00
58622;BME280;44389;51.578;5.456;2023-12-20T07:43:41;101452.16;;;4.23;100.00
58622;BME280;44389;51.578;5.456;2023-12-20T07:46:08;101449.59;;;4.23;100.00
58622;BME280;44389;51.578;5.456;2023-12-20T07:48:36;101448.81;;;4.24;100.00
58622;BME280;44389;51.578;5.456;2023-12-20T07:51:03;101449.78;;;4.26;100.00
58622;BME280;44389;51.578;5.456;2023-12-20T07:53:28;101449.91;;;4.27;100.00
58622;BME280;44389;51.578;5.456;2023-12-20T07:55:54;101451.66;;;4.28;100.00
58622;BME280;44389;51.578;5.456;2023-12-20T07:58:20;101446.66;;;4.30;100.00
58622;BME280;44389;51.578;5.456;2023-12-20T08:00:45;101441.66;;;4.32;100.00
58622;BME280;44389;51.578;5.456;2023-12-20T08:03:10;101452.03;;;4.35;100.00
58622;BME280;44389;51.578;5.456;2023-12-20T08:05:37;101454.81;;;4.38;100.00
58622;BME280;44389;51.578;5.456;2023-12-20T08:08:04;101457.56;;;4.41;100.00
58622;BME280;44389;51.578;5.456;2023-12-20T08:10:30;101463.75;;;4.44;100.00
58622;BME280;44389;51.578;5.456;2023-12-20T08:12:55;101446.84;;;4.47;100.00
58622;BME280;44389;51.578;5.456;2023-12-20T08:15:20;101453.81;;;4.49;100.00
58622;BME280;44389;51.578;5.456;2023-12-20T08:17:45;101451.47;;;4.52;100.00
58622;BME280;44389;51.578;5.456;2023-12-20T08:20:11;101453.34;;;4.55;100.00
58622;BME280;44389;51.578;5.456;2023-12-20T08:22:36;101462.94;;;4.59;100.00
58622;BME280;44389;51.578;5.456;2023-12-20T08:25:01;101469.84;;;4.60;100.00
58622;BME280;44389;51.578;5.456;2023-12-20T08:27:27;101474.44;;;4.66;100.00
58622;BME280;44389;51.578;5.456;2023-12-20T08:29:52;101478.84;;;4.68;100.00
58622;BME280;44389;51.578;5.456;2023-12-20T08:32:17;101462.84;;;4.71;100.00
58622;BME280;44389;51.578;5.456;2023-12-20T08:34:43;101474.22;;;4.76;100.00
58622;BME280;44389;51.578;5.456;2023-12-20T08:37:08;101469.22;;;4.77;100.00
58622;BME280;44389;51.578;5.456;2023-12-20T08:39:33;101468.53;;;4.80;100.00
58622;BME280;44389;51.578;5.456;2023-12-20T08:41:59;101473.63;;;4.80;100.00
58622;BME280;44389;51.578;5.456;2023-12-20T08:44:24;101470.28;;;4.81;100.00
58622;BME280;44389;51.578;5.456;2023-12-20T08:46:49;101470.50;;;4.84;100.00
58622;BME280;44389;51.578;5.456;2023-12-20T08:49:15;101460.47;;;4.87;100.00
58622;BME280;44389;51.578;5.456;2023-12-20T08:51:40;101448.69;;;4.89;100.00
58622;BME280;44389;51.578;5.456;2023-12-20T08:54:06;101437.88;;;4.93;100.00
58622;BME280;44389;51.578;5.456;2023-12-20T08:56:33;101437.97;;;4.95;100.00
58622;BME280;44389;51.578;5.456;2023-12-20T08:58:58;101440.59;;;4.97;100.00
58622;BME280;44389;51.578;5.456;2023-12-20T09:01:24;101433.94;;;4.99;100.00
58622;BME280;44389;51.578;5.456;2023-12-20T09:03:49;101429.00;;;5.02;100.00
58622;BME280;44389;51.578;5.456;2023-12-20T09:06:14;101435.00;;;5.02;100.00
58622;BME280;44389;51.578;5.456;2023-12-20T09:08:40;101435.00;;;5.02;100.00
58622;BME280;44389;51.578;5.456;2023-12-20T09:11:06;101429.91;;;5.02;100.00
58622;BME280;44389;51.578;5.456;2023-12-20T09:13:32;101435.09;;;5.04;100.00
58622;BME280;44389;51.578;5.456;2023-12-20T09:15:57;101433.63;;;5.07;100.00
58622;BME280;44389;51.578;5.456;2023-12-20T09:18:23;101429.38;;;5.08;100.00
58622;BME280;44389;51.578;5.456;2023-12-20T09:20:48;101439.69;;;5.09;100.00
58622;BME280;44389;51.578;5.456;2023-12-20T09:23:13;101441.47;;;5.10;100.00
58622;BME280;44389;51.578;5.456;2023-12-20T09:25:39;101445.78;;;5.11;100.00
58622;BME280;44389;51.578;5.456;2023-12-20T09:28:04;101445.09;;;5.14;100.00
58622;BME280;44389;51.578;5.456;2023-12-20T09:30:30;101447.72;;;5.16;100.00
58622;BME280;44389;51.578;5.456;2023-12-20T09:32:55;101446.06;;;5.16;100.00
58622;BME280;44389;51.578;5.456;2023-12-20T09:35:21;101445.34;;;5.19;100.00
58622;BME280;44389;51.578;5.456;2023-12-20T09:37:46;101437.00;;;5.21;100.00
58622;BME280;44389;51.578;5.456;2023-12-20T09:40:18;101437.19;;;5.24;100.00
58622;BME280;44389;51.578;5.456;2023-12-20T09:42:53;101440.63;;;5.25;100.00
58622;BME280;44389;51.578;5.456;2023-12-20T09:45:21;101435.72;;;5.28;100.00
58622;BME280;44389;51.578;5.456;2023-12-20T09:47:50;101440.00;;;5.29;100.00
58622;BME280;44389;51.578;5.456;2023-12-20T09:50:18;101435.88;;;5.31;100.00
58622;BME280;44389;51.578;5.456;2023-12-20T09:52:46;101434.19;;;5.32;100.00
58622;BME280;44389;51.578;5.456;2023-12-20T09:55:15;101438.53;;;5.33;100.00
58622;BME280;44389;51.578;5.456;2023-12-20T09:57:42;101441.19;;;5.34;100.00
58622;BME280;44389;51.578;5.456;2023-12-20T10:00:08;101444.63;;;5.35;100.00
58622;BME280;44389;51.578;5.456;2023-12-20T10:02:34;101442.16;;;5.36;100.00
58622;BME280;44389;51.578;5.456;2023-12-20T10:05:01;101436.44;;;5.40;100.00
58622;BME280;44389;51.578;5.456;2023-12-20T10:07:28;101432.41;;;5.44;100.00
58622;BME280;44389;51.578;5.456;2023-12-20T10:09:54;101441.22;;;5.49;100.00
58622;BME280;44389;51.578;5.456;2023-12-20T10:12:21;101430.28;;;5.52;100.00
58622;BME280;44389;51.578;5.456;2023-12-20T10:14:46;101432.31;;;5.57;100.00
58622;BME280;44389;51.578;5.456;2023-12-20T10:17:11;101431.63;;;5.60;100.00
58622;BME280;44389;51.578;5.456;2023-12-20T10:19:37;101421.59;;;5.63;100.00
58622;BME280;44389;51.578;5.456;2023-12-20T10:22:04;101427.66;;;5.65;100.00
58622;BME280;44389;51.578;5.456;2023-12-20T10:24:30;101422.84;;;5.70;100.00
58622;BME280;44389;51.578;5.456;2023-12-20T10:27:06;101431.66;;;5.75;100.00
58622;BME280;44389;51.578;5.456;2023-12-20T10:29:35;101437.91;;;5.80;100.00
58622;BME280;44389;51.578;5.456;2023-12-20T10:32:24;101448.41;;;5.85;100.00
58622;BME280;44389;51.578;5.456;2023-12-20T10:34:50;101436.44;;;5.84;100.00
58622;BME280;44389;51.578;5.456;2023-12-20T10:37:16;101427.06;;;5.84;100.00
58622;BME280;44389;51.578;5.456;2023-12-20T10:39:42;101433.88;;;5.84;100.00
58622;BME280;44389;51.578;5.456;2023-12-20T10:42:09;101430.41;;;5.83;100.00
58622;BME280;44389;51.578;5.456;2023-12-20T10:44:36;101428.56;;;5.81;100.00
58622;BME280;44389;51.578;5.456;2023-12-20T10:47:01;101418.25;;;5.79;100.00
58622;BME280;44389;51.578;5.456;2023-12-20T10:49:28;101408.81;;;5.78;100.00
58622;BME280;44389;51.578;5.456;2023-12-20T10:51:55;101402.72;;;5.76;100.00
58622;BME280;44389;51.578;5.456;2023-12-20T10:54:22;101404.84;;;5.83;100.00
58622;BME280;44389;51.578;5.456;2023-12-20T10:56:49;101392.38;;;5.74;100.00
58622;BME280;44389;51.578;5.456;2023-12-20T10:59:19;101400.06;;;5.74;100.00
58622;BME280;44389;51.578;5.456;2023-12-20T11:01:46;101392.50;;;5.76;100.00
58622;BME280;44389;51.578;5.456;2023-12-20T11:04:15;101385.00;;;5.79;100.00
58622;BME280;44389;51.578;5.456;2023-12-20T11:09:22;101400.78;;;5.87;100.00
58622;BME280;44389;51.578;5.456;2023-12-20T11:14:38;101388.28;;;5.91;100.00
58622;BME280;44389;51.578;5.456;2023-12-20T11:17:12;101388.44;;;5.94;100.00
58622;BME280;44389;51.578;5.456;2023-12-20T11:22:27;101394.41;;;5.95;100.00
58622;BME280;44389;51.578;5.456;2023-12-20T11:24:58;101398.66;;;5.94;100.00
58622;BME280;44389;51.578;5.456;2023-12-20T11:27:24;101390.19;;;5.96;100.00
58622;BME280;44389;51.578;5.456;2023-12-20T11:29:53;101381.53;;;5.93;100.00
58622;BME280;44389;51.578;5.456;2023-12-20T11:34:51;101379.69;;;5.91;100.00
58622;BME280;44389;51.578;5.456;2023-12-20T11:37:19;101379.59;;;5.89;100.00
58622;BME280;44389;51.578;5.456;2023-12-20T11:39:44;101377.84;;;5.88;100.00
58622;BME280;44389;51.578;5.456;2023-12-20T11:42:10;101373.50;;;5.87;100.00
58622;BME280;44389;51.578;5.456;2023-12-20T11:44:36;101373.63;;;5.89;100.00
58622;BME280;44389;51.578;5.456;2023-12-20T11:47:02;101369.38;;;5.89;100.00
58622;BME280;44389;51.578;5.456;2023-12-20T11:49:27;101371.31;;;5.93;100.00
58622;BME280;44389;51.578;5.456;2023-12-20T11:51:54;101369.06;;;5.98;100.00
58622;BME280;44389;51.578;5.456;2023-12-20T11:54:19;101359.69;;;5.99;100.00
58622;BME280;44389;51.578;5.456;2023-12-20T11:56:46;101365.56;;;5.98;100.00
58622;BME280;44389;51.578;5.456;2023-12-20T11:59:11;101363.72;;;5.95;100.00
58622;BME280;44389;51.578;5.456;2023-12-20T12:01:36;101362.06;;;5.96;100.00
58622;BME280;44389;51.578;5.456;2023-12-20T12:04:03;101359.50;;;5.96;100.00
58622;BME280;44389;51.578;5.456;2023-12-20T12:06:28;101351.81;;;5.96;100.00
58622;BME280;44389;51.578;5.456;2023-12-20T12:08:54;101344.16;;;5.96;100.00
58622;BME280;44389;51.578;5.456;2023-12-20T12:11:21;101343.34;;;5.97;100.00
58622;BME280;44389;51.578;5.456;2023-12-20T12:13:46;101347.56;;;5.96;100.00
58622;BME280;44389;51.578;5.456;2023-12-20T12:16:11;101344.22;;;5.97;100.00
58622;BME280;44389;51.578;5.456;2023-12-20T12:18:37;101337.56;;;5.99;100.00
58622;BME280;44389;51.578;5.456;2023-12-20T12:21:02;101336.03;;;6.03;100.00
58622;BME280;44389;51.578;5.456;2023-12-20T12:23:28;101339.56;;;6.05;100.00
58622;BME280;44389;51.578;5.456;2023-12-20T12:25:54;101336.22;;;6.06;100.00
58622;BME280;44389;51.578;5.456;2023-12-20T12:28:20;101336.56;;;6.12;100.00
58622;BME280;44389;51.578;5.456;2023-12-20T12:30:58;101329.84;;;6.14;100.00
58622;BME280;44389;51.578;5.456;2023-12-20T12:33:25;101319.59;;;6.14;100.00
58622;BME280;44389;51.578;5.456;2023-12-20T12:35:51;101319.78;;;6.17;100.00
58622;BME280;44389;51.578;5.456;2023-12-20T12:38:20;101324.09;;;6.18;100.00
58622;BME280;44389;51.578;5.456;2023-12-20T12:40:45;101313.97;;;6.20;100.00
58622;BME280;44389;51.578;5.456;2023-12-20T12:43:10;101319.94;;;6.20;100.00
58622;BME280;44389;51.578;5.456;2023-12-20T12:45:35;101312.34;;;6.22;100.00
58622;BME280;44389;51.578;5.456;2023-12-20T12:48:01;101319.31;;;6.24;100.00
58622;BME280;44389;51.578;5.456;2023-12-20T12:50:26;101318.53;;;6.25;100.00
58622;BME280;44389;51.578;5.456;2023-12-20T12:52:53;101305.81;;;6.27;100.00